sensor_id;sensor_type;location;lat;lon;timestamp;P1;durP1;ratioP1;P2;durP2;ratioP2
76123;SDS011;65173;48.066;20.976;2023-07-29T00:00:18;1.45;;;0.82;;
76123;SDS011;65173;48.066;20.976;2023-07-29T00:03:22;2.05;;;1.08;;
76123;SDS011;65173;48.066;20.976;2023-07-29T00:06:26;1.60;;;0.93;;
76123;SDS011;65173;48.066;20.976;2023-07-29T00:09:29;1.85;;;1.13;;
76123;SDS011;65173;48.066;20.976;2023-07-29T00:12:32;1.80;;;1.08;;
76123;SDS011;65173;48.066;20.976;2023-07-29T00:15:34;1.93;;;1.30;;
76123;SDS011;65173;48.066;20.976;2023-07-29T00:18:37;2.42;;;0.90;;
76123;SDS011;65173;48.066;20.976;2023-07-29T00:21:40;2.55;;;1.20;;
76123;SDS011;65173;48.066;20.976;2023-07-29T00:24:43;1.10;;;0.95;;
76123;SDS011;65173;48.066;20.976;2023-07-29T00:27:46;1.55;;;0.93;;
76123;SDS011;65173;48.066;20.976;2023-07-29T00:30:48;1.35;;;0.90;;
76123;SDS011;65173;48.066;20.976;2023-07-29T00:33:51;1.75;;;1.10;;
76123;SDS011;65173;48.066;20.976;2023-07-29T00:36:55;1.70;;;0.93;;
76123;SDS011;65173;48.066;20.976;2023-07-29T00:39:58;2.03;;;1.00;;
76123;SDS011;65173;48.066;20.976;2023-07-29T00:43:01;1.92;;;1.10;;
76123;SDS011;65173;48.066;20.976;2023-07-29T00:46:03;1.10;;;0.70;;
76123;SDS011;65173;48.066;20.976;2023-07-29T00:49:07;2.00;;;0.77;;
76123;SDS011;65173;48.066;20.976;2023-07-29T00:52:10;1.73;;;0.80;;
76123;SDS011;65173;48.066;20.976;2023-07-29T00:55:14;1.75;;;0.80;;
76123;SDS011;65173;48.066;20.976;2023-07-29T00:58:17;1.60;;;1.15;;
76123;SDS011;65173;48.066;20.976;2023-07-29T01:01:22;1.85;;;1.13;;
76123;SDS011;65173;48.066;20.976;2023-07-29T01:04:24;2.30;;;1.25;;
76123;SDS011;65173;48.066;20.976;2023-07-29T01:13:44;1.30;;;0.70;;
76123;SDS011;65173;48.066;20.976;2023-07-29T01:17:00;1.63;;;1.30;;
76123;SDS011;65173;48.066;20.976;2023-07-29T01:23:13;2.90;;;1.20;;
76123;SDS011;65173;48.066;20.976;2023-07-29T01:26:18;3.67;;;1.40;;
76123;SDS011;65173;48.066;20.976;2023-07-29T01:29:20;2.10;;;1.33;;
76123;SDS011;65173;48.066;20.976;2023-07-29T01:35:50;1.92;;;1.10;;
76123;SDS011;65173;48.066;20.976;2023-07-29T01:38:57;2.57;;;0.97;;
76123;SDS011;65173;48.066;20.976;2023-07-29T01:42:00;3.45;;;1.52;;
76123;SDS011;65173;48.066;20.976;2023-07-29T01:45:04;1.33;;;0.90;;
76123;SDS011;65173;48.066;20.976;2023-07-29T01:48:07;2.00;;;1.00;;
76123;SDS011;65173;48.066;20.976;2023-07-29T01:51:11;3.15;;;1.05;;
76123;SDS011;65173;48.066;20.976;2023-07-29T01:54:14;0.95;;;0.70;;
76123;SDS011;65173;48.066;20.976;2023-07-29T01:57:17;1.95;;;1.10;;
76123;SDS011;65173;48.066;20.976;2023-07-29T02:00:21;5.13;;;1.13;;
76123;SDS011;65173;48.066;20.976;2023-07-29T02:03:23;1.90;;;1.27;;
76123;SDS011;65173;48.066;20.976;2023-07-29T02:06:26;2.28;;;1.45;;
76123;SDS011;65173;48.066;20.976;2023-07-29T02:09:29;2.73;;;1.40;;
76123;SDS011;65173;48.066;20.976;2023-07-29T02:12:33;2.45;;;0.88;;
76123;SDS011;65173;48.066;20.976;2023-07-29T02:15:36;2.17;;;0.80;;
76123;SDS011;65173;48.066;20.976;2023-07-29T02:18:39;4.00;;;0.87;;
76123;SDS011;65173;48.066;20.976;2023-07-29T02:21:42;1.70;;;1.10;;
76123;SDS011;65173;48.066;20.976;2023-07-29T02:24:45;1.77;;;0.85;;
76123;SDS011;65173;48.066;20.976;2023-07-29T02:27:47;2.15;;;1.23;;
76123;SDS011;65173;48.066;20.976;2023-07-29T02:31:08;2.40;;;1.30;;
76123;SDS011;65173;48.066;20.976;2023-07-29T02:34:13;0.77;;;0.70;;
76123;SDS011;65173;48.066;20.976;2023-07-29T02:37:16;1.27;;;0.77;;
76123;SDS011;65173;48.066;20.976;2023-07-29T02:40:19;1.73;;;0.80;;
76123;SDS011;65173;48.066;20.976;2023-07-29T02:43:23;1.98;;;1.15;;
76123;SDS011;65173;48.066;20.976;2023-07-29T02:46:26;2.13;;;1.33;;
76123;SDS011;65173;48.066;20.976;2023-07-29T02:49:29;1.63;;;1.17;;
76123;SDS011;65173;48.066;20.976;2023-07-29T02:52:31;1.20;;;0.77;;
76123;SDS011;65173;48.066;20.976;2023-07-29T02:55:34;1.63;;;0.95;;
76123;SDS011;65173;48.066;20.976;2023-07-29T02:58:37;1.48;;;0.88;;
76123;SDS011;65173;48.066;20.976;2023-07-29T03:01:40;2.70;;;1.10;;
76123;SDS011;65173;48.066;20.976;2023-07-29T03:04:42;1.20;;;0.73;;
76123;SDS011;65173;48.066;20.976;2023-07-29T03:07:45;1.63;;;1.15;;
76123;SDS011;65173;48.066;20.976;2023-07-29T03:10:48;2.30;;;1.17;;
76123;SDS011;65173;48.066;20.976;2023-07-29T03:13:50;3.28;;;1.23;;
76123;SDS011;65173;48.066;20.976;2023-07-29T03:16:54;1.65;;;0.90;;
76123;SDS011;65173;48.066;20.976;2023-07-29T03:19:56;1.60;;;0.80;;
76123;SDS011;65173;48.066;20.976;2023-07-29T03:22:59;1.40;;;1.00;;
76123;SDS011;65173;48.066;20.976;2023-07-29T03:26:02;1.85;;;0.95;;
76123;SDS011;65173;48.066;20.976;2023-07-29T03:29:12;1.50;;;1.10;;
76123;SDS011;65173;48.066;20.976;2023-07-29T03:32:15;1.38;;;1.17;;
76123;SDS011;65173;48.066;20.976;2023-07-29T03:35:18;2.58;;;1.05;;
76123;SDS011;65173;48.066;20.976;2023-07-29T03:38:21;2.97;;;1.55;;
76123;SDS011;65173;48.066;20.976;2023-07-29T03:41:24;2.20;;;1.50;;
76123;SDS011;65173;48.066;20.976;2023-07-29T03:44:26;1.30;;;0.90;;
76123;SDS011;65173;48.066;20.976;2023-07-29T03:47:29;2.92;;;1.30;;
76123;SDS011;65173;48.066;20.976;2023-07-29T03:50:34;2.97;;;1.33;;
76123;SDS011;65173;48.066;20.976;2023-07-29T03:53:37;2.92;;;1.13;;
76123;SDS011;65173;48.066;20.976;2023-07-29T03:56:40;1.17;;;1.00;;
76123;SDS011;65173;48.066;20.976;2023-07-29T03:59:43;1.52;;;1.25;;
76123;SDS011;65173;48.066;20.976;2023-07-29T04:02:46;2.17;;;1.00;;
76123;SDS011;65173;48.066;20.976;2023-07-29T04:05:49;2.45;;;1.25;;
76123;SDS011;65173;48.066;20.976;2023-07-29T04:08:53;2.00;;;1.38;;
76123;SDS011;65173;48.066;20.976;2023-07-29T04:11:56;2.17;;;1.43;;
76123;SDS011;65173;48.066;20.976;2023-07-29T04:14:58;1.40;;;1.15;;
76123;SDS011;65173;48.066;20.976;2023-07-29T04:18:01;2.40;;;1.50;;
76123;SDS011;65173;48.066;20.976;2023-07-29T04:21:04;2.40;;;1.13;;
76123;SDS011;65173;48.066;20.976;2023-07-29T04:24:07;2.30;;;1.30;;
76123;SDS011;65173;48.066;20.976;2023-07-29T04:27:10;1.85;;;1.27;;
76123;SDS011;65173;48.066;20.976;2023-07-29T04:30:12;2.47;;;1.30;;
76123;SDS011;65173;48.066;20.976;2023-07-29T04:33:15;1.92;;;1.70;;
76123;SDS011;65173;48.066;20.976;2023-07-29T04:36:18;2.75;;;1.50;;
76123;SDS011;65173;48.066;20.976;2023-07-29T04:39:21;2.00;;;1.52;;
76123;SDS011;65173;48.066;20.976;2023-07-29T04:42:24;2.33;;;1.37;;
76123;SDS011;65173;48.066;20.976;2023-07-29T04:45:29;1.92;;;1.50;;
76123;SDS011;65173;48.066;20.976;2023-07-29T04:48:33;3.03;;;1.17;;
76123;SDS011;65173;48.066;20.976;2023-07-29T04:51:35;1.77;;;1.33;;
76123;SDS011;65173;48.066;20.976;2023-07-29T04:54:39;2.28;;;1.42;;
76123;SDS011;65173;48.066;20.976;2023-07-29T04:57:42;1.95;;;1.42;;
76123;SDS011;65173;48.066;20.976;2023-07-29T05:00:48;2.22;;;1.15;;
76123;SDS011;65173;48.066;20.976;2023-07-29T05:03:50;2.20;;;1.45;;
76123;SDS011;65173;48.066;20.976;2023-07-29T05:06:54;3.47;;;1.88;;
76123;SDS011;65173;48.066;20.976;2023-07-29T05:09:56;2.08;;;1.42;;
76123;SDS011;65173;48.066;20.976;2023-07-29T05:12:59;1.40;;;1.30;;
76123;SDS011;65173;48.066;20.976;2023-07-29T05:16:02;2.30;;;1.52;;
76123;SDS011;65173;48.066;20.976;2023-07-29T05:19:05;3.42;;;1.60;;
76123;SDS011;65173;48.066;20.976;2023-07-29T05:22:07;2.00;;;1.40;;
76123;SDS011;65173;48.066;20.976;2023-07-29T05:25:11;1.73;;;1.40;;
76123;SDS011;65173;48.066;20.976;2023-07-29T05:28:13;2.67;;;1.50;;
76123;SDS011;65173;48.066;20.976;2023-07-29T05:31:16;2.90;;;2.05;;
76123;SDS011;65173;48.066;20.976;2023-07-29T05:34:19;8.88;;;2.03;;
76123;SDS011;65173;48.066;20.976;2023-07-29T05:37:22;2.50;;;1.67;;
76123;SDS011;65173;48.066;20.976;2023-07-29T05:40:25;2.30;;;1.92;;
76123;SDS011;65173;48.066;20.976;2023-07-29T05:43:28;1.40;;;1.00;;
76123;SDS011;65173;48.066;20.976;2023-07-29T05:46:30;4.43;;;1.65;;
76123;SDS011;65173;48.066;20.976;2023-07-29T05:49:33;2.67;;;1.45;;
76123;SDS011;65173;48.066;20.976;2023-07-29T05:52:36;1.60;;;1.40;;
76123;SDS011;65173;48.066;20.976;2023-07-29T05:55:39;1.88;;;1.45;;
76123;SDS011;65173;48.066;20.976;2023-07-29T05:58:42;2.35;;;1.70;;
76123;SDS011;65173;48.066;20.976;2023-07-29T06:01:44;4.45;;;1.88;;
76123;SDS011;65173;48.066;20.976;2023-07-29T06:04:47;3.17;;;2.13;;
76123;SDS011;65173;48.066;20.976;2023-07-29T06:07:50;1.60;;;1.50;;
76123;SDS011;65173;48.066;20.976;2023-07-29T06:10:53;2.85;;;1.98;;
76123;SDS011;65173;48.066;20.976;2023-07-29T06:13:56;2.07;;;1.30;;
76123;SDS011;65173;48.066;20.976;2023-07-29T06:16:59;2.70;;;1.52;;
76123;SDS011;65173;48.066;20.976;2023-07-29T06:20:03;1.35;;;1.17;;
76123;SDS011;65173;48.066;20.976;2023-07-29T06:23:07;1.87;;;1.37;;
76123;SDS011;65173;48.066;20.976;2023-07-29T06:26:10;2.03;;;1.38;;
76123;SDS011;65173;48.066;20.976;2023-07-29T06:29:13;2.13;;;1.58;;
76123;SDS011;65173;48.066;20.976;2023-07-29T06:32:16;1.85;;;1.42;;
76123;SDS011;65173;48.066;20.976;2023-07-29T06:35:19;3.22;;;1.27;;
76123;SDS011;65173;48.066;20.976;2023-07-29T06:38:22;2.28;;;1.77;;
76123;SDS011;65173;48.066;20.976;2023-07-29T06:41:24;1.70;;;1.60;;
76123;SDS011;65173;48.066;20.976;2023-07-29T06:44:28;1.70;;;1.60;;
76123;SDS011;65173;48.066;20.976;2023-07-29T06:47:30;1.60;;;1.50;;
76123;SDS011;65173;48.066;20.976;2023-07-29T06:50:33;1.48;;;1.33;;
76123;SDS011;65173;48.066;20.976;2023-07-29T06:53:36;2.47;;;1.57;;
76123;SDS011;65173;48.066;20.976;2023-07-29T06:56:39;2.42;;;1.92;;
76123;SDS011;65173;48.066;20.976;2023-07-29T06:59:42;2.13;;;1.92;;
76123;SDS011;65173;48.066;20.976;2023-07-29T07:02:44;2.28;;;1.70;;
76123;SDS011;65173;48.066;20.976;2023-07-29T07:05:47;2.75;;;1.98;;
76123;SDS011;65173;48.066;20.976;2023-07-29T07:08:50;2.05;;;1.85;;
76123;SDS011;65173;48.066;20.976;2023-07-29T07:11:53;2.22;;;2.03;;
76123;SDS011;65173;48.066;20.976;2023-07-29T07:14:56;2.17;;;1.97;;
76123;SDS011;65173;48.066;20.976;2023-07-29T07:17:59;2.33;;;1.50;;
76123;SDS011;65173;48.066;20.976;2023-07-29T07:21:02;2.30;;;1.80;;
76123;SDS011;65173;48.066;20.976;2023-07-29T07:24:05;3.47;;;2.37;;
76123;SDS011;65173;48.066;20.976;2023-07-29T07:27:08;2.33;;;2.13;;
76123;SDS011;65173;48.066;20.976;2023-07-29T07:30:11;3.33;;;2.45;;
76123;SDS011;65173;48.066;20.976;2023-07-29T07:33:14;2.65;;;1.80;;
76123;SDS011;65173;48.066;20.976;2023-07-29T07:36:16;2.17;;;1.95;;
76123;SDS011;65173;48.066;20.976;2023-07-29T07:39:19;1.73;;;1.63;;
76123;SDS011;65173;48.066;20.976;2023-07-29T07:42:22;2.13;;;1.60;;
76123;SDS011;65173;48.066;20.976;2023-07-29T07:45:25;2.93;;;1.83;;
76123;SDS011;65173;48.066;20.976;2023-07-29T07:48:28;2.00;;;1.80;;
76123;SDS011;65173;48.066;20.976;2023-07-29T07:51:31;5.57;;;2.35;;
76123;SDS011;65173;48.066;20.976;2023-07-29T07:54:33;1.77;;;1.67;;
76123;SDS011;65173;48.066;20.976;2023-07-29T07:57:37;2.22;;;2.03;;
76123;SDS011;65173;48.066;20.976;2023-07-29T08:00:39;2.38;;;1.70;;
76123;SDS011;65173;48.066;20.976;2023-07-29T08:03:42;2.55;;;1.58;;
76123;SDS011;65173;48.066;20.976;2023-07-29T08:06:45;2.25;;;2.05;;
76123;SDS011;65173;48.066;20.976;2023-07-29T08:09:48;2.50;;;2.15;;
76123;SDS011;65173;48.066;20.976;2023-07-29T08:12:50;4.30;;;3.03;;
76123;SDS011;65173;48.066;20.976;2023-07-29T08:15:53;3.40;;;1.87;;
76123;SDS011;65173;48.066;20.976;2023-07-29T08:18:56;2.22;;;2.00;;
76123;SDS011;65173;48.066;20.976;2023-07-29T08:21:59;7.30;;;2.60;;
76123;SDS011;65173;48.066;20.976;2023-07-29T08:25:01;2.00;;;1.90;;
76123;SDS011;65173;48.066;20.976;2023-07-29T08:28:04;2.85;;;2.25;;
76123;SDS011;65173;48.066;20.976;2023-07-29T08:31:07;2.58;;;2.38;;
76123;SDS011;65173;48.066;20.976;2023-07-29T08:34:10;2.40;;;2.22;;
76123;SDS011;65173;48.066;20.976;2023-07-29T08:37:13;2.65;;;2.45;;
76123;SDS011;65173;48.066;20.976;2023-07-29T08:40:16;3.13;;;2.70;;
76123;SDS011;65173;48.066;20.976;2023-07-29T08:43:19;3.40;;;2.65;;
76123;SDS011;65173;48.066;20.976;2023-07-29T08:46:25;1.90;;;1.80;;
76123;SDS011;65173;48.066;20.976;2023-07-29T08:49:29;2.72;;;2.47;;
76123;SDS011;65173;48.066;20.976;2023-07-29T08:52:33;2.08;;;1.98;;
76123;SDS011;65173;48.066;20.976;2023-07-29T08:55:37;2.10;;;1.90;;
76123;SDS011;65173;48.066;20.976;2023-07-29T08:58:41;2.58;;;2.33;;
76123;SDS011;65173;48.066;20.976;2023-07-29T09:01:44;1.90;;;1.80;;
76123;SDS011;65173;48.066;20.976;2023-07-29T09:04:48;2.42;;;2.22;;
76123;SDS011;65173;48.066;20.976;2023-07-29T09:07:51;2.05;;;1.85;;
76123;SDS011;65173;48.066;20.976;2023-07-29T09:10:56;2.42;;;2.22;;
76123;SDS011;65173;48.066;20.976;2023-07-29T09:13:59;2.70;;;2.20;;
76123;SDS011;65173;48.066;20.976;2023-07-29T09:17:02;2.73;;;2.57;;
76123;SDS011;65173;48.066;20.976;2023-07-29T09:20:09;2.90;;;2.15;;
76123;SDS011;65173;48.066;20.976;2023-07-29T09:23:12;2.42;;;2.03;;
76123;SDS011;65173;48.066;20.976;2023-07-29T09:26:15;2.70;;;2.55;;
76123;SDS011;65173;48.066;20.976;2023-07-29T09:29:24;2.30;;;2.10;;
76123;SDS011;65173;48.066;20.976;2023-07-29T09:32:30;3.00;;;2.40;;
76123;SDS011;65173;48.066;20.976;2023-07-29T09:35:34;2.15;;;1.90;;
76123;SDS011;65173;48.066;20.976;2023-07-29T09:38:38;2.30;;;2.10;;
76123;SDS011;65173;48.066;20.976;2023-07-29T09:41:41;2.00;;;1.90;;
76123;SDS011;65173;48.066;20.976;2023-07-29T09:44:50;2.00;;;1.80;;
76123;SDS011;65173;48.066;20.976;2023-07-29T09:47:54;2.30;;;2.10;;
76123;SDS011;65173;48.066;20.976;2023-07-29T09:50:58;2.28;;;1.83;;
76123;SDS011;65173;48.066;20.976;2023-07-29T09:54:02;2.45;;;2.25;;
76123;SDS011;65173;48.066;20.976;2023-07-29T09:57:06;2.35;;;2.20;;
76123;SDS011;65173;48.066;20.976;2023-07-29T10:00:12;2.60;;;2.30;;
76123;SDS011;65173;48.066;20.976;2023-07-29T10:03:15;2.65;;;2.45;;
76123;SDS011;65173;48.066;20.976;2023-07-29T10:06:18;2.55;;;2.35;;
76123;SDS011;65173;48.066;20.976;2023-07-29T10:09:22;3.27;;;2.30;;
76123;SDS011;65173;48.066;20.976;2023-07-29T10:12:25;3.20;;;2.85;;
76123;SDS011;65173;48.066;20.976;2023-07-29T10:15:29;2.83;;;2.50;;
76123;SDS011;65173;48.066;20.976;2023-07-29T10:18:34;4.57;;;2.70;;
76123;SDS011;65173;48.066;20.976;2023-07-29T10:21:37;2.25;;;2.15;;
76123;SDS011;65173;48.066;20.976;2023-07-29T10:24:41;2.95;;;2.60;;
76123;SDS011;65173;48.066;20.976;2023-07-29T10:27:49;2.42;;;2.22;;
76123;SDS011;65173;48.066;20.976;2023-07-29T10:30:56;2.17;;;2.08;;
76123;SDS011;65173;48.066;20.976;2023-07-29T10:33:59;2.67;;;2.47;;
76123;SDS011;65173;48.066;20.976;2023-07-29T10:37:02;3.95;;;2.85;;
76123;SDS011;65173;48.066;20.976;2023-07-29T10:40:06;2.13;;;2.00;;
76123;SDS011;65173;48.066;20.976;2023-07-29T10:43:11;2.45;;;2.25;;
76123;SDS011;65173;48.066;20.976;2023-07-29T10:46:19;2.50;;;2.30;;
76123;SDS011;65173;48.066;20.976;2023-07-29T10:49:23;2.85;;;2.65;;
76123;SDS011;65173;48.066;20.976;2023-07-29T10:55:33;3.22;;;2.67;;
76123;SDS011;65173;48.066;20.976;2023-07-29T10:58:41;4.53;;;2.60;;
76123;SDS011;65173;48.066;20.976;2023-07-29T11:01:56;2.50;;;2.20;;
76123;SDS011;65173;48.066;20.976;2023-07-29T11:05:04;3.20;;;2.22;;
76123;SDS011;65173;48.066;20.976;2023-07-29T11:11:30;3.13;;;2.47;;
76123;SDS011;65173;48.066;20.976;2023-07-29T11:14:33;2.38;;;2.17;;
76123;SDS011;65173;48.066;20.976;2023-07-29T11:17:45;4.13;;;2.33;;
76123;SDS011;65173;48.066;20.976;2023-07-29T11:20:53;2.35;;;2.20;;
76123;SDS011;65173;48.066;20.976;2023-07-29T11:23:56;3.47;;;1.77;;
76123;SDS011;65173;48.066;20.976;2023-07-29T11:27:00;2.90;;;2.35;;
76123;SDS011;65173;48.066;20.976;2023-07-29T11:30:06;2.13;;;2.03;;
76123;SDS011;65173;48.066;20.976;2023-07-29T11:33:10;3.63;;;2.17;;
76123;SDS011;65173;48.066;20.976;2023-07-29T11:36:18;2.20;;;2.10;;
76123;SDS011;65173;48.066;20.976;2023-07-29T11:39:22;2.03;;;1.90;;
76123;SDS011;65173;48.066;20.976;2023-07-29T11:42:24;3.20;;;1.92;;
76123;SDS011;65173;48.066;20.976;2023-07-29T11:45:29;2.05;;;1.95;;
76123;SDS011;65173;48.066;20.976;2023-07-29T11:48:53;1.80;;;1.70;;
76123;SDS011;65173;48.066;20.976;2023-07-29T11:51:56;2.47;;;2.28;;
76123;SDS011;65173;48.066;20.976;2023-07-29T11:55:00;1.50;;;1.40;;
76123;SDS011;65173;48.066;20.976;2023-07-29T11:58:04;2.10;;;1.65;;
76123;SDS011;65173;48.066;20.976;2023-07-29T12:01:07;1.60;;;1.50;;
76123;SDS011;65173;48.066;20.976;2023-07-29T12:04:10;1.80;;;1.70;;
76123;SDS011;65173;48.066;20.976;2023-07-29T12:07:14;1.85;;;1.42;;
76123;SDS011;65173;48.066;20.976;2023-07-29T12:10:21;1.42;;;1.33;;
76123;SDS011;65173;48.066;20.976;2023-07-29T12:13:24;1.70;;;1.60;;
76123;SDS011;65173;48.066;20.976;2023-07-29T12:16:27;3.03;;;1.30;;
76123;SDS011;65173;48.066;20.976;2023-07-29T12:19:38;1.73;;;1.40;;
76123;SDS011;65173;48.066;20.976;2023-07-29T12:22:41;1.55;;;1.45;;
76123;SDS011;65173;48.066;20.976;2023-07-29T12:25:44;1.47;;;1.37;;
76123;SDS011;65173;48.066;20.976;2023-07-29T12:28:47;1.42;;;1.02;;
76123;SDS011;65173;48.066;20.976;2023-07-29T12:31:56;1.55;;;1.42;;
76123;SDS011;65173;48.066;20.976;2023-07-29T12:35:00;0.98;;;0.98;;
76123;SDS011;65173;48.066;20.976;2023-07-29T12:38:03;1.60;;;1.48;;
76123;SDS011;65173;48.066;20.976;2023-07-29T12:41:06;1.50;;;1.40;;
76123;SDS011;65173;48.066;20.976;2023-07-29T12:44:09;1.65;;;1.27;;
76123;SDS011;65173;48.066;20.976;2023-07-29T12:47:11;2.13;;;1.33;;
76123;SDS011;65173;48.066;20.976;2023-07-29T12:50:14;1.90;;;1.80;;
76123;SDS011;65173;48.066;20.976;2023-07-29T12:53:17;1.30;;;1.20;;
76123;SDS011;65173;48.066;20.976;2023-07-29T12:56:20;1.03;;;1.03;;
76123;SDS011;65173;48.066;20.976;2023-07-29T12:59:23;1.27;;;1.17;;
76123;SDS011;65173;48.066;20.976;2023-07-29T13:02:25;1.23;;;1.13;;
76123;SDS011;65173;48.066;20.976;2023-07-29T13:05:29;2.10;;;1.50;;
76123;SDS011;65173;48.066;20.976;2023-07-29T13:08:31;1.88;;;1.30;;
76123;SDS011;65173;48.066;20.976;2023-07-29T13:11:34;3.08;;;1.45;;
76123;SDS011;65173;48.066;20.976;2023-07-29T13:14:37;1.63;;;1.52;;
76123;SDS011;65173;48.066;20.976;2023-07-29T13:17:39;3.93;;;1.37;;
76123;SDS011;65173;48.066;20.976;2023-07-29T13:20:43;1.75;;;1.13;;
76123;SDS011;65173;48.066;20.976;2023-07-29T13:23:46;1.00;;;0.90;;
76123;SDS011;65173;48.066;20.976;2023-07-29T13:26:49;1.30;;;1.10;;
76123;SDS011;65173;48.066;20.976;2023-07-29T13:29:52;1.40;;;1.30;;
76123;SDS011;65173;48.066;20.976;2023-07-29T13:32:54;1.63;;;1.23;;
76123;SDS011;65173;48.066;20.976;2023-07-29T13:35:57;1.25;;;1.00;;
76123;SDS011;65173;48.066;20.976;2023-07-29T13:39:00;1.40;;;1.30;;
76123;SDS011;65173;48.066;20.976;2023-07-29T13:42:03;0.82;;;0.80;;
76123;SDS011;65173;48.066;20.976;2023-07-29T13:45:05;2.10;;;2.00;;
76123;SDS011;65173;48.066;20.976;2023-07-29T13:48:08;0.97;;;0.97;;
76123;SDS011;65173;48.066;20.976;2023-07-29T13:51:11;1.45;;;1.35;;
76123;SDS011;65173;48.066;20.976;2023-07-29T13:54:14;1.25;;;1.00;;
76123;SDS011;65173;48.066;20.976;2023-07-29T13:57:17;0.97;;;0.97;;
76123;SDS011;65173;48.066;20.976;2023-07-29T14:00:20;0.95;;;0.95;;
76123;SDS011;65173;48.066;20.976;2023-07-29T14:03:22;1.02;;;1.00;;
76123;SDS011;65173;48.066;20.976;2023-07-29T14:06:26;0.80;;;0.80;;
76123;SDS011;65173;48.066;20.976;2023-07-29T14:09:46;0.70;;;0.70;;
76123;SDS011;65173;48.066;20.976;2023-07-29T14:12:49;1.30;;;1.20;;
76123;SDS011;65173;48.066;20.976;2023-07-29T14:15:52;3.00;;;1.10;;
76123;SDS011;65173;48.066;20.976;2023-07-29T14:18:55;1.23;;;0.80;;
76123;SDS011;65173;48.066;20.976;2023-07-29T14:21:57;0.82;;;0.82;;
76123;SDS011;65173;48.066;20.976;2023-07-29T14:25:00;0.73;;;0.50;;
76123;SDS011;65173;48.066;20.976;2023-07-29T14:28:03;1.10;;;1.00;;
76123;SDS011;65173;48.066;20.976;2023-07-29T14:31:06;1.10;;;1.00;;
76123;SDS011;65173;48.066;20.976;2023-07-29T14:34:09;1.08;;;0.90;;
76123;SDS011;65173;48.066;20.976;2023-07-29T14:37:12;1.35;;;1.25;;
76123;SDS011;65173;48.066;20.976;2023-07-29T14:40:15;4.18;;;1.15;;
76123;SDS011;65173;48.066;20.976;2023-07-29T14:43:17;1.42;;;1.33;;
76123;SDS011;65173;48.066;20.976;2023-07-29T14:46:20;3.83;;;0.70;;
76123;SDS011;65173;48.066;20.976;2023-07-29T14:49:23;5.37;;;1.23;;
76123;SDS011;65173;48.066;20.976;2023-07-29T14:52:26;0.82;;;0.82;;
76123;SDS011;65173;48.066;20.976;2023-07-29T14:55:29;4.05;;;1.33;;
76123;SDS011;65173;48.066;20.976;2023-07-29T14:58:31;1.40;;;1.30;;
76123;SDS011;65173;48.066;20.976;2023-07-29T15:01:34;1.40;;;1.20;;
76123;SDS011;65173;48.066;20.976;2023-07-29T15:04:37;0.88;;;0.80;;
76123;SDS011;65173;48.066;20.976;2023-07-29T15:07:40;1.50;;;1.40;;
76123;SDS011;65173;48.066;20.976;2023-07-29T15:10:46;1.00;;;0.95;;
76123;SDS011;65173;48.066;20.976;2023-07-29T15:13:50;2.00;;;1.08;;
76123;SDS011;65173;48.066;20.976;2023-07-29T15:16:53;1.10;;;1.00;;
76123;SDS011;65173;48.066;20.976;2023-07-29T15:19:56;0.97;;;0.90;;
76123;SDS011;65173;48.066;20.976;2023-07-29T15:22:59;2.42;;;1.13;;
76123;SDS011;65173;48.066;20.976;2023-07-29T15:26:02;1.05;;;0.90;;
76123;SDS011;65173;48.066;20.976;2023-07-29T15:29:04;1.10;;;1.00;;
76123;SDS011;65173;48.066;20.976;2023-07-29T15:32:09;1.75;;;1.30;;
76123;SDS011;65173;48.066;20.976;2023-07-29T15:35:11;1.30;;;1.10;;
76123;SDS011;65173;48.066;20.976;2023-07-29T15:38:14;1.75;;;1.00;;
76123;SDS011;65173;48.066;20.976;2023-07-29T15:41:17;1.27;;;1.05;;
76123;SDS011;65173;48.066;20.976;2023-07-29T15:44:20;1.27;;;1.20;;
76123;SDS011;65173;48.066;20.976;2023-07-29T15:47:22;1.25;;;1.13;;
76123;SDS011;65173;48.066;20.976;2023-07-29T15:50:25;0.73;;;0.73;;
76123;SDS011;65173;48.066;20.976;2023-07-29T15:53:28;0.75;;;0.75;;
76123;SDS011;65173;48.066;20.976;2023-07-29T15:56:30;1.05;;;0.95;;
76123;SDS011;65173;48.066;20.976;2023-07-29T15:59:33;2.10;;;1.10;;
76123;SDS011;65173;48.066;20.976;2023-07-29T16:02:36;4.05;;;1.08;;
76123;SDS011;65173;48.066;20.976;2023-07-29T16:05:40;3.42;;;1.00;;
76123;SDS011;65173;48.066;20.976;2023-07-29T16:08:43;0.60;;;0.60;;
76123;SDS011;65173;48.066;20.976;2023-07-29T16:11:46;1.67;;;0.80;;
76123;SDS011;65173;48.066;20.976;2023-07-29T16:14:49;3.08;;;0.98;;
76123;SDS011;65173;48.066;20.976;2023-07-29T16:17:53;2.58;;;1.00;;
76123;SDS011;65173;48.066;20.976;2023-07-29T16:20:57;1.27;;;1.03;;
76123;SDS011;65173;48.066;20.976;2023-07-29T16:24:08;0.77;;;0.77;;
76123;SDS011;65173;48.066;20.976;2023-07-29T16:27:11;3.25;;;1.08;;
76123;SDS011;65173;48.066;20.976;2023-07-29T16:30:13;1.10;;;1.00;;
76123;SDS011;65173;48.066;20.976;2023-07-29T16:33:16;0.80;;;0.80;;
76123;SDS011;65173;48.066;20.976;2023-07-29T16:36:19;1.35;;;0.80;;
76123;SDS011;65173;48.066;20.976;2023-07-29T16:39:21;0.60;;;0.60;;
76123;SDS011;65173;48.066;20.976;2023-07-29T16:42:24;1.00;;;0.77;;
76123;SDS011;65173;48.066;20.976;2023-07-29T16:45:27;1.23;;;1.10;;
76123;SDS011;65173;48.066;20.976;2023-07-29T16:48:30;3.60;;;1.20;;
76123;SDS011;65173;48.066;20.976;2023-07-29T16:51:33;1.40;;;0.90;;
76123;SDS011;65173;48.066;20.976;2023-07-29T16:54:35;0.80;;;0.80;;
76123;SDS011;65173;48.066;20.976;2023-07-29T16:57:38;1.55;;;0.98;;
76123;SDS011;65173;48.066;20.976;2023-07-29T17:00:41;1.07;;;0.60;;
76123;SDS011;65173;48.066;20.976;2023-07-29T17:03:44;0.95;;;0.65;;
76123;SDS011;65173;48.066;20.976;2023-07-29T17:06:46;5.85;;;0.95;;
76123;SDS011;65173;48.066;20.976;2023-07-29T17:09:49;6.38;;;0.88;;
76123;SDS011;65173;48.066;20.976;2023-07-29T17:12:54;1.88;;;1.27;;
76123;SDS011;65173;48.066;20.976;2023-07-29T17:15:58;1.40;;;0.70;;
76123;SDS011;65173;48.066;20.976;2023-07-29T17:19:00;1.02;;;0.75;;
76123;SDS011;65173;48.066;20.976;2023-07-29T17:22:06;2.20;;;0.80;;
76123;SDS011;65173;48.066;20.976;2023-07-29T17:25:08;5.07;;;0.98;;
76123;SDS011;65173;48.066;20.976;2023-07-29T17:28:11;2.72;;;0.50;;
76123;SDS011;65173;48.066;20.976;2023-07-29T17:31:14;3.27;;;0.90;;
76123;SDS011;65173;48.066;20.976;2023-07-29T17:34:17;1.58;;;0.77;;
76123;SDS011;65173;48.066;20.976;2023-07-29T17:37:20;2.35;;;0.98;;
76123;SDS011;65173;48.066;20.976;2023-07-29T17:40:23;2.25;;;0.98;;
76123;SDS011;65173;48.066;20.976;2023-07-29T17:43:25;4.32;;;0.77;;
76123;SDS011;65173;48.066;20.976;2023-07-29T17:46:28;1.02;;;0.93;;
76123;SDS011;65173;48.066;20.976;2023-07-29T17:49:30;1.77;;;0.70;;
76123;SDS011;65173;48.066;20.976;2023-07-29T17:52:33;1.83;;;1.00;;
76123;SDS011;65173;48.066;20.976;2023-07-29T17:55:36;1.75;;;0.98;;
76123;SDS011;65173;48.066;20.976;2023-07-29T17:58:40;1.38;;;1.02;;
76123;SDS011;65173;48.066;20.976;2023-07-29T18:01:42;0.97;;;0.70;;
76123;SDS011;65173;48.066;20.976;2023-07-29T18:04:45;0.63;;;0.60;;
76123;SDS011;65173;48.066;20.976;2023-07-29T18:07:49;3.10;;;1.15;;
76123;SDS011;65173;48.066;20.976;2023-07-29T18:10:51;2.78;;;1.02;;
76123;SDS011;65173;48.066;20.976;2023-07-29T18:13:54;3.33;;;1.00;;
76123;SDS011;65173;48.066;20.976;2023-07-29T18:16:56;2.35;;;1.10;;
76123;SDS011;65173;48.066;20.976;2023-07-29T18:19:59;4.97;;;1.17;;
76123;SDS011;65173;48.066;20.976;2023-07-29T18:23:02;2.23;;;1.20;;
76123;SDS011;65173;48.066;20.976;2023-07-29T18:26:07;1.52;;;0.90;;